sensor_id;sensor_type;location;lat;lon;timestamp;temperature;humidity
997;DHT22;487;50.126;8.698;2023-07-31T04:02:28;19.00;19.50
997;DHT22;487;50.126;8.698;2023-07-31T04:04:55;19.00;20.70
997;DHT22;487;50.126;8.698;2023-07-31T04:07:23;19.00;21.20
997;DHT22;487;50.126;8.698;2023-07-31T04:09:51;18.90;21.00
997;DHT22;487;50.126;8.698;2023-07-31T04:12:19;19.00;21.20
997;DHT22;487;50.126;8.698;2023-07-31T04:14:47;19.00;21.20
997;DHT22;487;50.126;8.698;2023-07-31T04:17:15;19.00;20.00
997;DHT22;487;50.126;8.698;2023-07-31T04:19:44;19.00;22.40
997;DHT22;487;50.126;8.698;2023-07-31T04:24:52;19.20;20.40
997;DHT22;487;50.126;8.698;2023-07-31T04:27:20;19.20;28.80
997;DHT22;487;50.126;8.698;2023-07-31T04:29:47;19.00;20.30
997;DHT22;487;50.126;8.698;2023-07-31T04:32:15;19.00;21.30
997;DHT22;487;50.126;8.698;2023-07-31T04:34:45;19.10;20.20
997;DHT22;487;50.126;8.698;2023-07-31T04:37:13;19.00;20.20
997;DHT22;487;50.126;8.698;2023-07-31T04:39:41;18.90;20.90
997;DHT22;487;50.126;8.698;2023-07-31T04:42:08;19.00;22.90
997;DHT22;487;50.126;8.698;2023-07-31T04:44:36;19.00;22.20
997;DHT22;487;50.126;8.698;2023-07-31T04:47:05;19.00;30.50
997;DHT22;487;50.126;8.698;2023-07-31T04:49:33;19.20;21.70
997;DHT22;487;50.126;8.698;2023-07-31T04:52:03;19.20;20.40
997;DHT22;487;50.126;8.698;2023-07-31T04:54:31;19.20;28.20
997;DHT22;487;50.126;8.698;2023-07-31T04:56:59;19.30;28.40
997;DHT22;487;50.126;8.698;2023-07-31T04:59:26;19.30;27.20
997;DHT22;487;50.126;8.698;2023-07-31T05:01:54;19.30;19.10
997;DHT22;487;50.126;8.698;2023-07-31T05:04:22;19.30;18.90
997;DHT22;487;50.126;8.698;2023-07-31T05:06:50;19.40;19.20
997;DHT22;487;50.126;8.698;2023-07-31T05:09:19;19.40;17.60
997;DHT22;487;50.126;8.698;2023-07-31T05:11:47;19.40;18.50
997;DHT22;487;50.126;8.698;2023-07-31T05:14:15;19.40;17.60
997;DHT22;487;50.126;8.698;2023-07-31T05:16:43;19.40;18.10
997;DHT22;487;50.126;8.698;2023-07-31T05:19:11;19.40;26.00
997;DHT22;487;50.126;8.698;2023-07-31T05:21:39;19.50;18.60
997;DHT22;487;50.126;8.698;2023-07-31T05:24:07;19.30;17.70
997;DHT22;487;50.126;8.698;2023-07-31T05:26:36;19.00;20.60
997;DHT22;487;50.126;8.698;2023-07-31T05:29:05;19.10;23.20
997;DHT22;487;50.126;8.698;2023-07-31T05:31:32;18.90;22.80
997;DHT22;487;50.126;8.698;2023-07-31T05:34:00;18.80;23.30
997;DHT22;487;50.126;8.698;2023-07-31T05:36:29;18.80;25.90
997;DHT22;487;50.126;8.698;2023-07-31T05:38:56;18.90;27.30
997;DHT22;487;50.126;8.698;2023-07-31T05:41:24;18.90;37.20
997;DHT22;487;50.126;8.698;2023-07-31T05:43:53;19.00;25.20
997;DHT22;487;50.126;8.698;2023-07-31T05:46:21;19.10;25.90
997;DHT22;487;50.126;8.698;2023-07-31T05:48:49;20.30;25.60
997;DHT22;487;50.126;8.698;2023-07-31T05:51:17;19.00;28.60
997;DHT22;487;50.126;8.698;2023-07-31T05:53:45;19.10;29.50
997;DHT22;487;50.126;8.698;2023-07-31T05:56:12;19.10;29.30
997;DHT22;487;50.126;8.698;2023-07-31T05:58:40;19.00;39.80
997;DHT22;487;50.126;8.698;2023-07-31T06:01:09;19.00;27.40
997;DHT22;487;50.126;8.698;2023-07-31T06:03:37;19.00;26.70
997;DHT22;487;50.126;8.698;2023-07-31T06:06:05;19.10;27.40
997;DHT22;487;50.126;8.698;2023-07-31T06:08:33;19.10;27.20
997;DHT22;487;50.126;8.698;2023-07-31T06:11:01;19.10;25.80
997;DHT22;487;50.126;8.698;2023-07-31T06:13:29;19.10;27.00
997;DHT22;487;50.126;8.698;2023-07-31T06:18:27;18.90;27.70
997;DHT22;487;50.126;8.698;2023-07-31T06:20:55;18.90;38.50
997;DHT22;487;50.126;8.698;2023-07-31T06:23:23;19.10;28.40
997;DHT22;487;50.126;8.698;2023-07-31T06:25:51;19.10;25.80
997;DHT22;487;50.126;8.698;2023-07-31T06:28:18;19.00;25.70
997;DHT22;487;50.126;8.698;2023-07-31T06:30:46;19.00;25.30
997;DHT22;487;50.126;8.698;2023-07-31T06:33:14;19.00;24.90
997;DHT22;487;50.126;8.698;2023-07-31T06:35:43;19.00;26.00
997;DHT22;487;50.126;8.698;2023-07-31T06:38:12;19.10;26.00
997;DHT22;487;50.126;8.698;2023-07-31T06:40:40;19.10;24.80
997;DHT22;487;50.126;8.698;2023-07-31T06:43:08;19.20;24.40
997;DHT22;487;50.126;8.698;2023-07-31T06:45:36;19.00;24.20
997;DHT22;487;50.126;8.698;2023-07-31T06:48:04;19.80;33.80
997;DHT22;487;50.126;8.698;2023-07-31T06:50:32;18.90;24.10
997;DHT22;487;50.126;8.698;2023-07-31T06:53:01;19.00;25.10
997;DHT22;487;50.126;8.698;2023-07-31T06:55:30;19.00;26.90
997;DHT22;487;50.126;8.698;2023-07-31T06:57:57;19.00;24.40
997;DHT22;487;50.126;8.698;2023-07-31T07:00:25;19.20;27.20
997;DHT22;487;50.126;8.698;2023-07-31T07:02:53;19.40;25.50
997;DHT22;487;50.126;8.698;2023-07-31T07:05:21;19.40;34.00
997;DHT22;487;50.126;8.698;2023-07-31T07:07:50;19.50;31.00
997;DHT22;487;50.126;8.698;2023-07-31T07:10:19;19.30;22.10
997;DHT22;487;50.126;8.698;2023-07-31T07:15:16;19.40;22.10
997;DHT22;487;50.126;8.698;2023-07-31T07:17:44;19.30;21.10
997;DHT22;487;50.126;8.698;2023-07-31T07:20:12;19.10;23.30
997;DHT22;487;50.126;8.698;2023-07-31T07:22:40;19.10;22.40
997;DHT22;487;50.126;8.698;2023-07-31T07:25:09;19.20;24.00
997;DHT22;487;50.126;8.698;2023-07-31T07:27:38;19.20;33.60
997;DHT22;487;50.126;8.698;2023-07-31T07:30:07;19.50;23.70
997;DHT22;487;50.126;8.698;2023-07-31T07:32:35;19.70;24.20
997;DHT22;487;50.126;8.698;2023-07-31T07:35:04;19.90;21.90
997;DHT22;487;50.126;8.698;2023-07-31T07:37:32;20.00;23.10
997;DHT22;487;50.126;8.698;2023-07-31T07:40:00;20.10;20.20
997;DHT22;487;50.126;8.698;2023-07-31T07:42:28;20.20;22.40
997;DHT22;487;50.126;8.698;2023-07-31T07:44:57;20.30;18.40
997;DHT22;487;50.126;8.698;2023-07-31T07:47:25;20.40;22.60
997;DHT22;487;50.126;8.698;2023-07-31T07:49:55;20.50;20.30
997;DHT22;487;50.126;8.698;2023-07-31T07:52:23;20.50;20.00
997;DHT22;487;50.126;8.698;2023-07-31T07:54:50;20.60;19.90
997;DHT22;487;50.126;8.698;2023-07-31T07:57:18;20.50;18.60
997;DHT22;487;50.126;8.698;2023-07-31T07:59:46;20.50;20.00
997;DHT22;487;50.126;8.698;2023-07-31T08:02:15;20.50;19.90
997;DHT22;487;50.126;8.698;2023-07-31T08:04:43;20.40;19.80
997;DHT22;487;50.126;8.698;2023-07-31T08:07:11;20.40;20.90
997;DHT22;487;50.126;8.698;2023-07-31T08:09:40;20.40;20.30
997;DHT22;487;50.126;8.698;2023-07-31T08:12:08;20.20;19.70
997;DHT22;487;50.126;8.698;2023-07-31T08:14:36;20.20;21.80
997;DHT22;487;50.126;8.698;2023-07-31T08:17:04;20.10;21.30
997;DHT22;487;50.126;8.698;2023-07-31T08:19:33;20.00;23.40
997;DHT22;487;50.126;8.698;2023-07-31T08:22:01;19.90;24.60
997;DHT22;487;50.126;8.698;2023-07-31T08:24:29;23.60;27.20
997;DHT22;487;50.126;8.698;2023-07-31T08:29:25;20.20;26.00
997;DHT22;487;50.126;8.698;2023-07-31T08:31:53;20.30;27.20
997;DHT22;487;50.126;8.698;2023-07-31T08:36:51;20.20;24.70
997;DHT22;487;50.126;8.698;2023-07-31T08:39:18;20.30;26.30
997;DHT22;487;50.126;8.698;2023-07-31T08:41:47;20.40;24.00
997;DHT22;487;50.126;8.698;2023-07-31T08:44:15;20.50;23.20
997;DHT22;487;50.126;8.698;2023-07-31T08:46:46;20.50;21.90
997;DHT22;487;50.126;8.698;2023-07-31T08:49:17;20.50;20.80
997;DHT22;487;50.126;8.698;2023-07-31T08:51:46;20.50;22.60
997;DHT22;487;50.126;8.698;2023-07-31T08:54:18;20.70;22.60
997;DHT22;487;50.126;8.698;2023-07-31T08:56:46;20.90;21.70
997;DHT22;487;50.126;8.698;2023-07-31T08:59:14;21.00;19.70
997;DHT22;487;50.126;8.698;2023-07-31T09:01:49;21.00;19.60
997;DHT22;487;50.126;8.698;2023-07-31T09:04:18;20.90;18.50
997;DHT22;487;50.126;8.698;2023-07-31T09:06:48;20.90;18.90
997;DHT22;487;50.126;8.698;2023-07-31T09:09:18;20.80;20.80
997;DHT22;487;50.126;8.698;2023-07-31T09:11:47;20.90;20.40
997;DHT22;487;50.126;8.698;2023-07-31T09:14:15;21.00;20.50
997;DHT22;487;50.126;8.698;2023-07-31T09:16:54;21.00;21.00
997;DHT22;487;50.126;8.698;2023-07-31T09:19:26;21.10;16.80
997;DHT22;487;50.126;8.698;2023-07-31T09:21:54;21.10;18.90
997;DHT22;487;50.126;8.698;2023-07-31T09:24:27;21.20;18.90
997;DHT22;487;50.126;8.698;2023-07-31T09:26:57;21.20;12.80
997;DHT22;487;50.126;8.698;2023-07-31T09:29:27;21.20;11.60
997;DHT22;487;50.126;8.698;2023-07-31T09:31:56;21.00;11.10
997;DHT22;487;50.126;8.698;2023-07-31T09:34:29;20.90;15.90
997;DHT22;487;50.126;8.698;2023-07-31T09:37:01;21.00;14.80
997;DHT22;487;50.126;8.698;2023-07-31T09:39:31;21.00;17.30
997;DHT22;487;50.126;8.698;2023-07-31T09:41:59;21.20;15.80
997;DHT22;487;50.126;8.698;2023-07-31T09:44:39;21.20;12.00
997;DHT22;487;50.126;8.698;2023-07-31T09:47:21;21.10;11.60
997;DHT22;487;50.126;8.698;2023-07-31T09:52:18;20.80;17.30
997;DHT22;487;50.126;8.698;2023-07-31T09:54:47;20.70;24.00
997;DHT22;487;50.126;8.698;2023-07-31T09:57:17;20.80;29.90
997;DHT22;487;50.126;8.698;2023-07-31T09:59:47;20.80;32.10
997;DHT22;487;50.126;8.698;2023-07-31T10:02:21;20.70;24.50
997;DHT22;487;50.126;8.698;2023-07-31T10:04:50;20.60;21.40
997;DHT22;487;50.126;8.698;2023-07-31T10:07:20;20.70;29.80
997;DHT22;487;50.126;8.698;2023-07-31T10:09:53;20.90;20.40
997;DHT22;487;50.126;8.698;2023-07-31T10:12:26;21.00;16.10
997;DHT22;487;50.126;8.698;2023-07-31T10:14:55;21.10;13.00
997;DHT22;487;50.126;8.698;2023-07-31T10:17:25;21.30;14.60
997;DHT22;487;50.126;8.698;2023-07-31T10:22:22;21.50;11.40
997;DHT22;487;50.126;8.698;2023-07-31T10:24:52;21.50;11.80
997;DHT22;487;50.126;8.698;2023-07-31T10:29:50;21.60;6.40
997;DHT22;487;50.126;8.698;2023-07-31T10:32:20;21.60;5.70
997;DHT22;487;50.126;8.698;2023-07-31T10:34:51;21.60;5.00
997;DHT22;487;50.126;8.698;2023-07-31T10:37:24;21.60;4.70
997;DHT22;487;50.126;8.698;2023-07-31T10:39:58;21.70;3.30
997;DHT22;487;50.126;8.698;2023-07-31T10:42:33;21.70;1.20
997;DHT22;487;50.126;8.698;2023-07-31T10:45:03;21.70;1.00
997;DHT22;487;50.126;8.698;2023-07-31T10:47:37;21.70;1.10
997;DHT22;487;50.126;8.698;2023-07-31T10:50:17;21.70;1.10
997;DHT22;487;50.126;8.698;2023-07-31T10:52:50;21.80;2.10
997;DHT22;487;50.126;8.698;2023-07-31T10:55:31;21.80;10.30
997;DHT22;487;50.126;8.698;2023-07-31T10:58:06;22.00;1.50
997;DHT22;487;50.126;8.698;2023-07-31T11:00:36;22.00;1.30
997;DHT22;487;50.126;8.698;2023-07-31T11:03:06;23.90;2.60
997;DHT22;487;50.126;8.698;2023-07-31T11:05:46;22.00;1.30
997;DHT22;487;50.126;8.698;2023-07-31T11:08:17;22.00;9.50
997;DHT22;487;50.126;8.698;2023-07-31T11:10:48;22.20;1.40
997;DHT22;487;50.126;8.698;2023-07-31T11:15:45;22.30;1.00
997;DHT22;487;50.126;8.698;2023-07-31T11:20:42;22.30;1.00
997;DHT22;487;50.126;8.698;2023-07-31T11:23:11;22.40;1.50
997;DHT22;487;50.126;8.698;2023-07-31T11:25:39;22.30;1.00
997;DHT22;487;50.126;8.698;2023-07-31T11:28:11;22.30;1.40
997;DHT22;487;50.126;8.698;2023-07-31T11:30:39;22.40;1.40
997;DHT22;487;50.126;8.698;2023-07-31T11:33:09;22.50;1.00
997;DHT22;487;50.126;8.698;2023-07-31T11:35:41;22.50;1.00
997;DHT22;487;50.126;8.698;2023-07-31T11:38:12;22.50;7.80
997;DHT22;487;50.126;8.698;2023-07-31T11:40:44;22.60;7.20
997;DHT22;487;50.126;8.698;2023-07-31T11:43:13;22.50;1.00
997;DHT22;487;50.126;8.698;2023-07-31T11:45:46;22.50;1.00
997;DHT22;487;50.126;8.698;2023-07-31T11:48:22;22.50;1.40
997;DHT22;487;50.126;8.698;2023-07-31T11:50:51;22.40;1.00
997;DHT22;487;50.126;8.698;2023-07-31T11:53:22;22.30;1.00
997;DHT22;487;50.126;8.698;2023-07-31T11:55:53;22.30;1.00
997;DHT22;487;50.126;8.698;2023-07-31T11:58:23;22.30;1.00
997;DHT22;487;50.126;8.698;2023-07-31T12:00:52;22.30;1.00
997;DHT22;487;50.126;8.698;2023-07-31T12:03:20;22.30;1.00
997;DHT22;487;50.126;8.698;2023-07-31T12:08:16;22.50;1.00
997;DHT22;487;50.126;8.698;2023-07-31T12:10:44;22.40;1.00
997;DHT22;487;50.126;8.698;2023-07-31T12:13:21;22.40;1.00
997;DHT22;487;50.126;8.698;2023-07-31T12:15:54;22.40;1.00
997;DHT22;487;50.126;8.698;2023-07-31T12:18:24;22.40;1.00
997;DHT22;487;50.126;8.698;2023-07-31T12:20:55;22.50;1.00
997;DHT22;487;50.126;8.698;2023-07-31T12:23:24;22.60;1.00
997;DHT22;487;50.126;8.698;2023-07-31T12:26:00;22.60;5.80
997;DHT22;487;50.126;8.698;2023-07-31T12:31:00;22.50;1.00
997;DHT22;487;50.126;8.698;2023-07-31T12:33:31;22.60;1.00
997;DHT22;487;50.126;8.698;2023-07-31T12:36:01;22.60;1.00
997;DHT22;487;50.126;8.698;2023-07-31T12:38:29;22.60;1.00
997;DHT22;487;50.126;8.698;2023-07-31T12:40:57;22.70;1.00
997;DHT22;487;50.126;8.698;2023-07-31T12:43:25;22.70;1.00
997;DHT22;487;50.126;8.698;2023-07-31T12:45:55;22.70;1.00
997;DHT22;487;50.126;8.698;2023-07-31T12:48:24;22.70;1.00
997;DHT22;487;50.126;8.698;2023-07-31T12:50:52;22.60;1.00
997;DHT22;487;50.126;8.698;2023-07-31T12:53:20;22.60;1.00
997;DHT22;487;50.126;8.698;2023-07-31T12:55:48;22.60;1.00
997;DHT22;487;50.126;8.698;2023-07-31T12:58:16;22.80;1.00
997;DHT22;487;50.126;8.698;2023-07-31T13:00:44;22.80;4.60
997;DHT22;487;50.126;8.698;2023-07-31T13:05:42;22.90;1.00
997;DHT22;487;50.126;8.698;2023-07-31T13:10:38;23.40;1.00
997;DHT22;487;50.126;8.698;2023-07-31T13:13:06;23.80;1.00
997;DHT22;487;50.126;8.698;2023-07-31T13:15:34;23.90;1.00
997;DHT22;487;50.126;8.698;2023-07-31T13:18:02;23.90;2.80
997;DHT22;487;50.126;8.698;2023-07-31T13:20:30;23.90;1.50
997;DHT22;487;50.126;8.698;2023-07-31T13:22:59;21.50;1.00
997;DHT22;487;50.126;8.698;2023-07-31T13:25:27;23.50;1.00
997;DHT22;487;50.126;8.698;2023-07-31T13:27:56;23.40;1.00
997;DHT22;487;50.126;8.698;2023-07-31T13:30:27;23.40;1.00
997;DHT22;487;50.126;8.698;2023-07-31T13:32:56;23.40;1.00
997;DHT22;487;50.126;8.698;2023-07-31T13:35:24;23.40;1.00
997;DHT22;487;50.126;8.698;2023-07-31T13:37:52;23.30;1.00
997;DHT22;487;50.126;8.698;2023-07-31T13:40:21;23.20;1.00
997;DHT22;487;50.126;8.698;2023-07-31T13:42:50;23.10;1.00
997;DHT22;487;50.126;8.698;2023-07-31T13:45:19;23.10;1.00
997;DHT22;487;50.126;8.698;2023-07-31T13:47:48;23.20;1.00
997;DHT22;487;50.126;8.698;2023-07-31T13:50:16;23.20;1.00
997;DHT22;487;50.126;8.698;2023-07-31T13:55:16;23.10;1.00
997;DHT22;487;50.126;8.698;2023-07-31T13:57:45;23.10;1.00
997;DHT22;487;50.126;8.698;2023-07-31T14:00:14;23.10;1.00
997;DHT22;487;50.126;8.698;2023-07-31T14:07:38;23.10;1.00
997;DHT22;487;50.126;8.698;2023-07-31T14:10:06;23.20;1.00
997;DHT22;487;50.126;8.698;2023-07-31T14:15:10;23.10;1.00
997;DHT22;487;50.126;8.698;2023-07-31T14:17:38;23.10;1.00
997;DHT22;487;50.126;8.698;2023-07-31T14:20:08;23.10;4.00
997;DHT22;487;50.126;8.698;2023-07-31T14:22:37;22.90;1.00
997;DHT22;487;50.126;8.698;2023-07-31T14:25:06;22.80;1.00
997;DHT22;487;50.126;8.698;2023-07-31T14:27:36;22.80;2.50
997;DHT22;487;50.126;8.698;2023-07-31T14:30:06;22.60;2.30
997;DHT22;487;50.126;8.698;2023-07-31T14:32:35;22.70;1.00
997;DHT22;487;50.126;8.698;2023-07-31T14:35:04;22.70;1.00
997;DHT22;487;50.126;8.698;2023-07-31T14:37:37;22.60;1.00
997;DHT22;487;50.126;8.698;2023-07-31T14:40:06;22.50;3.50
997;DHT22;487;50.126;8.698;2023-07-31T14:42:34;22.50;1.00
997;DHT22;487;50.126;8.698;2023-07-31T14:45:03;22.60;6.50
997;DHT22;487;50.126;8.698;2023-07-31T14:47:35;22.70;1.00
997;DHT22;487;50.126;8.698;2023-07-31T14:50:04;22.70;1.00
997;DHT22;487;50.126;8.698;2023-07-31T14:52:32;22.70;1.00
997;DHT22;487;50.126;8.698;2023-07-31T14:55:00;22.70;1.00
997;DHT22;487;50.126;8.698;2023-07-31T14:57:28;22.70;1.00
997;DHT22;487;50.126;8.698;2023-07-31T14:59:56;22.80;1.00
997;DHT22;487;50.126;8.698;2023-07-31T15:02:25;22.80;1.00
997;DHT22;487;50.126;8.698;2023-07-31T15:04:55;22.80;1.00
997;DHT22;487;50.126;8.698;2023-07-31T15:07:22;22.70;1.00
997;DHT22;487;50.126;8.698;2023-07-31T15:09:50;22.60;1.00
997;DHT22;487;50.126;8.698;2023-07-31T15:12:18;22.60;1.00
997;DHT22;487;50.126;8.698;2023-07-31T15:14:47;22.60;8.00
997;DHT22;487;50.126;8.698;2023-07-31T15:17:15;22.60;1.00
997;DHT22;487;50.126;8.698;2023-07-31T15:19:43;22.50;1.00
997;DHT22;487;50.126;8.698;2023-07-31T15:22:12;22.50;1.00
997;DHT22;487;50.126;8.698;2023-07-31T15:24:40;22.40;7.80
997;DHT22;487;50.126;8.698;2023-07-31T15:27:08;22.40;1.00
997;DHT22;487;50.126;8.698;2023-07-31T15:29:36;22.30;1.00
997;DHT22;487;50.126;8.698;2023-07-31T15:32:05;22.20;1.00
997;DHT22;487;50.126;8.698;2023-07-31T15:34:33;22.20;1.00
997;DHT22;487;50.126;8.698;2023-07-31T15:39:31;22.10;1.00
997;DHT22;487;50.126;8.698;2023-07-31T15:41:59;22.10;1.00
997;DHT22;487;50.126;8.698;2023-07-31T15:44:27;22.10;1.00
997;DHT22;487;50.126;8.698;2023-07-31T15:46:55;22.10;1.00
997;DHT22;487;50.126;8.698;2023-07-31T15:49:22;22.10;1.00
997;DHT22;487;50.126;8.698;2023-07-31T15:51:50;22.20;1.00
997;DHT22;487;50.126;8.698;2023-07-31T15:54:18;22.20;1.00
997;DHT22;487;50.126;8.698;2023-07-31T15:56:47;22.20;1.00
997;DHT22;487;50.126;8.698;2023-07-31T15:59:15;22.00;1.00
997;DHT22;487;50.126;8.698;2023-07-31T16:04:12;21.90;1.00
997;DHT22;487;50.126;8.698;2023-07-31T16:09:09;21.90;1.00
997;DHT22;487;50.126;8.698;2023-07-31T16:11:37;21.80;1.00
997;DHT22;487;50.126;8.698;2023-07-31T16:14:06;21.90;1.00
997;DHT22;487;50.126;8.698;2023-07-31T16:16:34;21.90;5.00
997;DHT22;487;50.126;8.698;2023-07-31T16:28:55;21.60;1.00
997;DHT22;487;50.126;8.698;2023-07-31T16:31:25;21.60;1.00
997;DHT22;487;50.126;8.698;2023-07-31T16:33:53;21.60;1.00
997;DHT22;487;50.126;8.698;2023-07-31T16:43:45;21.50;1.00
997;DHT22;487;50.126;8.698;2023-07-31T16:46:13;21.50;1.00
997;DHT22;487;50.126;8.698;2023-07-31T16:48:43;21.60;2.80
997;DHT22;487;50.126;8.698;2023-07-31T16:51:10;21.60;1.00
997;DHT22;487;50.126;8.698;2023-07-31T16:53:40;21.60;1.00
997;DHT22;487;50.126;8.698;2023-07-31T16:56:08;21.60;1.00
997;DHT22;487;50.126;8.698;2023-07-31T16:58:36;21.60;1.00
997;DHT22;487;50.126;8.698;2023-07-31T17:01:04;21.60;9.30
997;DHT22;487;50.126;8.698;2023-07-31T17:03:32;21.40;1.00
997;DHT22;487;50.126;8.698;2023-07-31T17:06:02;21.40;9.40
997;DHT22;487;50.126;8.698;2023-07-31T17:08:29;21.40;9.00
997;DHT22;487;50.126;8.698;2023-07-31T17:10:57;21.40;5.10
997;DHT22;487;50.126;8.698;2023-07-31T17:13:25;21.50;6.50
997;DHT22;487;50.126;8.698;2023-07-31T17:15:53;21.50;5.90
997;DHT22;487;50.126;8.698;2023-07-31T17:18:21;21.40;8.50
997;DHT22;487;50.126;8.698;2023-07-31T17:20:49;21.40;10.90
997;DHT22;487;50.126;8.698;2023-07-31T17:23:18;21.40;12.00
997;DHT22;487;50.126;8.698;2023-07-31T17:25:46;21.40;16.70
997;DHT22;487;50.126;8.698;2023-07-31T17:28:13;21.10;21.40
997;DHT22;487;50.126;8.698;2023-07-31T17:30:42;21.10;26.00
997;DHT22;487;50.126;8.698;2023-07-31T17:33:10;21.00;25.10
997;DHT22;487;50.126;8.698;2023-07-31T17:35:37;20.90;32.80
997;DHT22;487;50.126;8.698;2023-07-31T17:38:05;20.70;33.10
997;DHT22;487;50.126;8.698;2023-07-31T17:40:34;20.60;42.20
997;DHT22;487;50.126;8.698;2023-07-31T17:43:02;20.50;47.60
997;DHT22;487;50.126;8.698;2023-07-31T17:47:58;20.20;66.40
997;DHT22;487;50.126;8.698;2023-07-31T17:50:26;20.20;81.30
997;DHT22;487;50.126;8.698;2023-07-31T17:52:54;20.00;86.60
997;DHT22;487;50.126;8.698;2023-07-31T17:55:22;19.80;84.70
997;DHT22;487;50.126;8.698;2023-07-31T17:57:51;19.80;96.20
997;DHT22;487;50.126;8.698;2023-07-31T18:00:20;19.90;99.90
997;DHT22;487;50.126;8.698;2023-07-31T18:02:49;19.80;99.90
997;DHT22;487;50.126;8.698;2023-07-31T18:05:18;19.90;99.90
997;DHT22;487;50.126;8.698;2023-07-31T18:07:46;19.90;99.90
997;DHT22;487;50.126;8.698;2023-07-31T18:10:14;20.00;99.90
997;DHT22;487;50.126;8.698;2023-07-31T18:12:41;20.20;99.90
997;DHT22;487;50.126;8.698;2023-07-31T18:15:11;20.20;99.90
997;DHT22;487;50.126;8.698;2023-07-31T18:17:39;20.20;99.90
997;DHT22;487;50.126;8.698;2023-07-31T18:20:08;20.10;99.90
997;DHT22;487;50.126;8.698;2023-07-31T18:22:38;20.20;99.90
997;DHT22;487;50.126;8.698;2023-07-31T18:25:07;20.30;99.90
997;DHT22;487;50.126;8.698;2023-07-31T18:27:36;20.30;99.90
997;DHT22;487;50.126;8.698;2023-07-31T18:30:05;20.30;99.90
997;DHT22;487;50.126;8.698;2023-07-31T18:32:34;20.30;99.90
997;DHT22;487;50.126;8.698;2023-07-31T18:37:31;20.20;99.90
997;DHT22;487;50.126;8.698;2023-07-31T18:39:59;20.00;99.90
997;DHT22;487;50.126;8.698;2023-07-31T18:42:27;20.00;99.90
997;DHT22;487;50.126;8.698;2023-07-31T18:44:55;20.10;99.90
997;DHT22;487;50.126;8.698;2023-07-31T18:49:53;20.20;99.90
997;DHT22;487;50.126;8.698;2023-07-31T18:52:20;20.30;99.90
997;DHT22;487;50.126;8.698;2023-07-31T18:54:48;20.50;99.90
997;DHT22;487;50.126;8.698;2023-07-31T18:57:16;20.50;99.90
997;DHT22;487;50.126;8.698;2023-07-31T18:59:44;20.70;99.90
997;DHT22;487;50.126;8.698;2023-07-31T19:02:12;20.80;99.90
997;DHT22;487;50.126;8.698;2023-07-31T19:04:40;20.90;99.90
997;DHT22;487;50.126;8.698;2023-07-31T19:07:09;21.00;99.90
997;DHT22;487;50.126;8.698;2023-07-31T19:09:37;21.10;99.90
997;DHT22;487;50.126;8.698;2023-07-31T19:12:06;21.10;99.90
997;DHT22;487;50.126;8.698;2023-07-31T19:14:34;21.10;99.90
997;DHT22;487;50.126;8.698;2023-07-31T19:19:30;21.00;99.90
997;DHT22;487;50.126;8.698;2023-07-31T19:21:58;20.90;99.90
997;DHT22;487;50.126;8.698;2023-07-31T19:24:28;20.90;99.90
997;DHT22;487;50.126;8.698;2023-07-31T19:27:03;20.90;99.90
997;DHT22;487;50.126;8.698;2023-07-31T19:29:31;21.00;99.90
997;DHT22;487;50.126;8.698;2023-07-31T19:31:59;21.00;99.90
997;DHT22;487;50.126;8.698;2023-07-31T19:34:27;21.00;99.90
997;DHT22;487;50.126;8.698;2023-07-31T19:36:55;20.90;99.90
997;DHT22;487;50.126;8.698;2023-07-31T19:39:23;20.90;99.90
997;DHT22;487;50.126;8.698;2023-07-31T19:41:54;20.90;99.90
997;DHT22;487;50.126;8.698;2023-07-31T19:44:22;20.80;99.90
997;DHT22;487;50.126;8.698;2023-07-31T19:49:18;20.80;99.90
997;DHT22;487;50.126;8.698;2023-07-31T19:51:46;20.90;99.90
997;DHT22;487;50.126;8.698;2023-07-31T19:54:15;20.90;99.90
997;DHT22;487;50.126;8.698;2023-07-31T19:56:43;20.80;99.90
997;DHT22;487;50.126;8.698;2023-07-31T19:59:13;20.80;99.90
997;DHT22;487;50.126;8.698;2023-07-31T20:01:40;20.60;99.90
997;DHT22;487;50.126;8.698;2023-07-31T20:04:08;20.50;99.90
997;DHT22;487;50.126;8.698;2023-07-31T20:06:36;20.60;99.90
997;DHT22;487;50.126;8.698;2023-07-31T20:09:05;20.50;99.90
997;DHT22;487;50.126;8.698;2023-07-31T20:11:33;20.60;99.90
997;DHT22;487;50.126;8.698;2023-07-31T20:14:04;20.70;99.90
997;DHT22;487;50.126;8.698;2023-07-31T20:16:34;20.70;99.90
997;DHT22;487;50.126;8.698;2023-07-31T20:19:08;20.70;99.90
997;DHT22;487;50.126;8.698;2023-07-31T20:21:36;20.70;99.90
997;DHT22;487;50.126;8.698;2023-07-31T20:24:06;20.70;99.90
997;DHT22;487;50.126;8.698;2023-07-31T20:29:03;20.60;99.90
997;DHT22;487;50.126;8.698;2023-07-31T20:31:31;20.60;99.90
997;DHT22;487;50.126;8.698;2023-07-31T20:34:00;20.60;99.90
997;DHT22;487;50.126;8.698;2023-07-31T20:36:28;20.60;99.90
997;DHT22;487;50.126;8.698;2023-07-31T20:38:56;20.20;99.90
997;DHT22;487;50.126;8.698;2023-07-31T20:41:24;20.00;99.90
997;DHT22;487;50.126;8.698;2023-07-31T20:43:51;20.10;99.90
997;DHT22;487;50.126;8.698;2023-07-31T20:46:19;20.00;99.90
997;DHT22;487;50.126;8.698;2023-07-31T20:48:47;19.90;99.90
997;DHT22;487;50.126;8.698;2023-07-31T20:51:17;19.70;99.90
997;DHT22;487;50.126;8.698;2023-07-31T20:53:45;19.50;99.90
997;DHT22;487;50.126;8.698;2023-07-31T20:56:12;19.50;99.90
997;DHT22;487;50.126;8.698;2023-07-31T20:58:40;19.30;99.90
997;DHT22;487;50.126;8.698;2023-07-31T21:01:08;19.30;99.90
997;DHT22;487;50.126;8.698;2023-07-31T21:03:36;19.10;99.90
997;DHT22;487;50.126;8.698;2023-07-31T21:06:04;19.00;99.90
997;DHT22;487;50.126;8.698;2023-07-31T21:08:35;18.90;99.90
997;DHT22;487;50.126;8.698;2023-07-31T21:11:03;18.90;99.90
997;DHT22;487;50.126;8.698;2023-07-31T21:13:30;18.80;99.90
997;DHT22;487;50.126;8.698;2023-07-31T21:16:01;18.80;99.90
997;DHT22;487;50.126;8.698;2023-07-31T21:18:29;18.70;99.90
997;DHT22;487;50.126;8.698;2023-07-31T21:20:57;18.70;99.90
997;DHT22;487;50.126;8.698;2023-07-31T21:23:25;18.60;99.90
997;DHT22;487;50.126;8.698;2023-07-31T21:25:54;18.60;99.90
997;DHT22;487;50.126;8.698;2023-07-31T21:28:22;18.40;99.90
997;DHT22;487;50.126;8.698;2023-07-31T21:30:50;18.40;99.90
997;DHT22;487;50.126;8.698;2023-07-31T21:33:18;18.30;99.90
997;DHT22;487;50.126;8.698;2023-07-31T21:35:46;18.30;99.90
997;DHT22;487;50.126;8.698;2023-07-31T21:38:14;18.50;99.90
997;DHT22;487;50.126;8.698;2023-07-31T21:43:12;18.40;99.90
997;DHT22;487;50.126;8.698;2023-07-31T21:45:40;18.50;99.90
997;DHT22;487;50.126;8.698;2023-07-31T21:48:08;18.50;99.90
997;DHT22;487;50.126;8.698;2023-07-31T21:50:36;18.60;99.90
997;DHT22;487;50.126;8.698;2023-07-31T21:53:04;18.70;99.90
997;DHT22;487;50.126;8.698;2023-07-31T21:55:32;18.40;99.90
997;DHT22;487;50.126;8.698;2023-07-31T21:58:00;18.40;1.00
997;DHT22;487;50.126;8.698;2023-07-31T22:00:29;18.50;1.00
997;DHT22;487;50.126;8.698;2023-07-31T22:02:57;18.40;1.00
997;DHT22;487;50.126;8.698;2023-07-31T22:05:25;18.30;1.00
997;DHT22;487;50.126;8.698;2023-07-31T22:07:53;18.40;1.00
997;DHT22;487;50.126;8.698;2023-07-31T22:10:21;18.30;1.00
997;DHT22;487;50.126;8.698;2023-07-31T22:12:48;18.30;1.00
997;DHT22;487;50.126;8.698;2023-07-31T22:15:16;18.40;1.00
997;DHT22;487;50.126;8.698;2023-07-31T22:17:45;18.40;1.00
997;DHT22;487;50.126;8.698;2023-07-31T22:20:13;18.40;1.00